YLIS

Details ICAO YLIS (LSY)
Name Lismore
Region Australia
Timezone Australia/Sydney (UTC+11.0)
Plans Departing 11
Arriving 7
Stats Elevation 35 ft / 11 m (AMSL)
Location -28.830900° 153.258000°
Runways 1
Magnetic Variation 11.474° E
Sunrise 2018-10-23 19:02:36 UTC / 2018-10-24 06:02:36 Local
Sunset 2018-10-24 08:02:12 UTC / 2018-10-24 19:02:12 Local
Advertisement - Login to hide

Runways

ID Width Length Bearing (true/mag) Surface Threshold Overrun Markings Lighting
15 98 ft / 30 m 5,421 ft / 1,652 m 157.30° / 145.83° ASPHALT 0 ft / 0 m 0 ft / 0 m APP EDGE THRESHOLD REIL-OMNI
33 98 ft / 30 m 5,421 ft / 1,652 m 337.30° / 325.82° ASPHALT 0 ft / 0 m 0 ft / 0 m APP EDGE THRESHOLD REIL-OMNI

Map

Weather


0- 5 10 15 20 25 30 35+ Temperature / °C

Clouds and Precipitation
Forecast for 2018-10-24 00:00 UTC. Updated 6 hours ago

Ground ~20,000 ft ~40,000 ft Winds

METAR

YLIS 240300Z AUTO 18005KT 120V210 9999 // NCD 32/16 Q1013

TAF

Not found

Frequencies

Unicom 119.60 MHz ACTIVATE LIGHTS ONLY MULT
Tower 120.30 MHz BRISBANE CNTR
Unicom 124.20 MHz LISMORE MULT
Warning: Do not use this data for real-world aviation or navigation. No guarantee of current accuracy is given.